Time;durP1;ratioP1;P1;durP2;ratioP2;P2;SDS_P1;SDS_P2;PMS_P1;PMS_P2;Temp;Humidity;BMP_temperature;BMP_pressure;BME280_temperature;BME280_humidity;BME280_pressure;Samples;Min_cycle;Max_cycle;Signal;HPM_P1;HPM_P2
2022/01/26 00:00:07;;;;;;;54.42;24.50;;;-0.50;78.90;;;;;;4991760;28;20041;-68
2022/01/26 00:08:02;;;;;;;57.17;26.38;;;-0.60;79.50;;;;;;4995431;28;20416;-68
2022/01/26 00:10:28;;;;;;;57.15;25.80;;;-0.60;79.70;;;;;;4990842;28;20083;-69
2022/01/26 00:12:53;;;;;;;52.53;23.10;;;-0.60;79.80;;;;;;4996181;28;20034;-68
2022/01/26 00:15:19;;;;;;;56.05;24.73;;;-0.60;79.90;;;;;;4995283;28;20038;-68
2022/01/26 00:17:45;;;;;;;54.33;24.75;;;-0.60;80.10;;;;;;4996167;28;20057;-68
2022/01/26 00:20:21;;;;;;;52.85;22.63;;;-0.60;80.40;;;;;;4998539;28;20050;-68
2022/01/26 00:28:08;;;;;;;47.85;21.60;;;-0.50;80.70;;;;;;4997926;28;20034;-68
2022/01/26 00:38:39;;;;;;;46.90;22.27;;;-0.30;81.10;;;;;;4993930;28;20045;-68
2022/01/26 00:41:13;;;;;;;47.90;22.13;;;-0.30;81.10;;;;;;4994831;28;20061;-68
2022/01/26 00:43:44;;;;;;;44.72;21.35;;;-0.30;81.40;;;;;;4995575;28;20683;-68
2022/01/26 00:46:09;;;;;;;47.63;23.08;;;-0.20;81.40;;;;;;4991284;28;20073;-69
2022/01/26 00:48:37;;;;;;;45.75;22.08;;;-0.20;81.30;;;;;;4992615;28;20038;-68
2022/01/26 00:51:06;;;;;;;45.45;22.15;;;-0.20;81.30;;;;;;4995902;28;20038;-69
2022/01/26 00:53:36;;;;;;;44.10;22.05;;;-0.10;81.00;;;;;;4994540;28;20054;-68
2022/01/26 00:56:04;;;;;;;46.20;22.98;;;-0.10;80.70;;;;;;4993691;28;20034;-68
2022/01/26 00:58:30;;;;;;;46.55;22.85;;;-0.10;80.60;;;;;;4995110;28;20088;-68
2022/01/26 01:00:59;;;;;;;45.25;22.52;;;-0.10;80.40;;;;;;4993445;28;20050;-68
2022/01/26 01:03:25;;;;;;;42.25;21.15;;;-0.10;80.40;;;;;;4993238;28;20037;-68
2022/01/26 01:05:57;;;;;;;45.90;22.00;;;-0.20;80.30;;;;;;4993104;28;20049;-68
2022/01/26 01:08:24;;;;;;;47.17;22.50;;;-0.20;80.30;;;;;;4997337;28;20038;-68
2022/01/26 01:10:52;;;;;;;47.50;22.50;;;-0.20;80.30;;;;;;4986488;28;20042;-69
2022/01/26 01:13:22;;;;;;;44.38;22.02;;;-0.20;80.30;;;;;;4992387;28;20693;-68
2022/01/26 01:15:50;;;;;;;48.70;23.13;;;-0.20;80.20;;;;;;4994226;28;20042;-68
2022/01/26 01:18:22;;;;;;;45.10;22.38;;;-0.20;80.00;;;;;;4995439;28;20133;-69
2022/01/26 01:31:50;;;;;;;48.75;23.02;;;-0.40;79.30;;;;;;4998586;28;20062;-67
2022/01/26 01:34:19;;;;;;;49.20;23.02;;;-0.40;79.30;;;;;;4996100;28;20042;-66
2022/01/26 01:36:49;;;;;;;51.90;24.17;;;-0.40;79.30;;;;;;4988601;28;20042;-69
2022/01/26 01:39:15;;;;;;;46.90;22.98;;;-0.50;79.50;;;;;;4998815;28;20042;-69
2022/01/26 01:41:42;;;;;;;50.28;23.75;;;-0.60;79.80;;;;;;4990507;28;20726;-70
2022/01/26 01:44:08;;;;;;;47.17;22.23;;;-0.60;80.20;;;;;;4997444;28;20030;-68
2022/01/26 01:46:35;;;;;;;46.22;22.50;;;-0.60;80.40;;;;;;5002127;28;20124;-69
2022/01/26 01:49:02;;;;;;;44.03;21.65;;;-0.60;80.50;;;;;;4991569;28;20050;-68
2022/01/26 01:51:33;;;;;;;47.03;23.67;;;-0.60;80.60;;;;;;4992847;28;20117;-68
2022/01/26 01:53:58;;;;;;;46.85;22.50;;;-0.60;80.60;;;;;;4994701;28;20456;-68
2022/01/26 01:56:26;;;;;;;47.40;23.55;;;-0.60;80.20;;;;;;4992650;28;20038;-71
2022/01/26 01:58:53;;;;;;;47.80;22.00;;;-0.60;79.90;;;;;;4992166;28;20129;-67
2022/01/26 02:01:20;;;;;;;44.53;20.73;;;-0.60;79.80;;;;;;4993491;28;20030;-68
2022/01/26 02:03:46;;;;;;;46.67;22.67;;;-0.60;79.90;;;;;;4992680;28;20044;-68
2022/01/26 02:06:11;;;;;;;45.22;21.65;;;-0.60;79.80;;;;;;4992703;28;20413;-68
2022/01/26 02:08:40;;;;;;;47.97;22.33;;;-0.60;79.70;;;;;;4993782;28;20034;-66
2022/01/26 02:11:07;;;;;;;41.03;20.02;;;-0.60;79.70;;;;;;4994411;28;20029;-68
2022/01/26 02:13:42;;;;;;;41.92;20.98;;;-0.60;79.90;;;;;;4991941;28;20144;-68
2022/01/26 02:19:07;;;;;;;43.28;20.25;;;-0.60;80.20;;;;;;4992532;28;20024;-68
2022/01/26 03:02:08;;;;;;;43.73;21.97;;;-0.40;82.20;;;;;;4988825;28;20107;-69
2022/01/26 03:07:10;;;;;;;47.83;22.83;;;-0.30;82.30;;;;;;4992001;28;20039;-68
2022/01/26 03:09:41;;;;;;;41.83;21.30;;;-0.30;82.20;;;;;;4992200;28;20045;-68
2022/01/26 03:12:09;;;;;;;44.53;22.40;;;-0.20;82.10;;;;;;4991740;28;20105;-67
2022/01/26 03:14:48;;;;;;;46.45;21.92;;;-0.20;82.10;;;;;;4993800;28;20560;-68
2022/01/26 03:19:49;;;;;;;44.35;22.48;;;-0.10;82.10;;;;;;4994614;28;20030;-68
2022/01/26 03:35:15;;;;;;;44.65;22.23;;;0.00;81.40;;;;;;5000738;28;20042;-68
2022/01/26 03:37:49;;;;;;;40.15;20.52;;;0.00;81.20;;;;;;4999403;28;20093;-68
2022/01/26 03:40:15;;;;;;;;;;;-0.10;81.10;;;;;;5000687;28;20031;-68
2022/01/26 03:42:41;;;;;;;41.60;21.55;;;0.00;81.40;;;;;;5001478;28;19917;-68
2022/01/26 03:45:07;;;;;;;42.97;21.23;;;-0.10;80.70;;;;;;5001422;28;20129;-68
2022/01/26 03:47:33;;;;;;;43.72;21.77;;;-0.10;80.60;;;;;;4999069;28;20141;-69
2022/01/26 03:49:59;;;;;;;48.08;23.08;;;-0.10;80.40;;;;;;4999918;28;20080;-68
2022/01/26 03:52:25;;;;;;;46.05;22.73;;;-0.20;80.40;;;;;;4999865;28;20416;-70
2022/01/26 03:54:50;;;;;;;45.30;21.83;;;-0.20;80.60;;;;;;4998747;28;20071;-68
2022/01/26 03:57:16;;;;;;;48.55;23.27;;;-0.20;80.50;;;;;;5000003;28;20053;-69
2022/01/26 03:59:42;;;;;;;48.40;22.73;;;-0.20;80.60;;;;;;4997431;28;20050;-68
2022/01/26 04:02:08;;;;;;;49.28;22.98;;;-0.20;80.40;;;;;;4999416;28;20105;-68
2022/01/26 04:04:41;;;;;;;45.58;22.45;;;-0.20;80.20;;;;;;4998548;28;20628;-68
2022/01/26 04:07:06;;;;;;;45.63;21.95;;;-0.30;80.20;;;;;;4999922;28;20068;-68
2022/01/26 04:09:32;;;;;;;43.70;21.35;;;-0.30;80.00;;;;;;4999494;28;20026;-68
2022/01/26 04:11:59;;;;;;;42.78;21.73;;;-0.40;79.60;;;;;;4998056;28;20097;-68
2022/01/26 04:14:29;;;;;;;48.35;23.15;;;-0.40;79.50;;;;;;4998964;28;20026;-68
2022/01/26 04:16:54;;;;;;;48.08;24.45;;;-0.40;79.70;;;;;;4997928;28;20042;-68
2022/01/26 04:19:21;;;;;;;50.38;24.58;;;-0.40;79.80;;;;;;5000613;28;20104;-68
2022/01/26 04:22:35;;;;;;;53.75;24.42;;;-0.40;79.70;;;;;;5000630;28;20062;-68
2022/01/26 04:24:44;;;;;;;50.72;23.70;;;-0.50;79.70;;;;;;4998955;28;20058;-68
2022/01/26 04:29:44;;;;;;;;;;;-0.50;80.20;;;;;;4995017;28;20058;-68
2022/01/26 04:32:13;;;;;;;52.85;23.65;;;-0.50;80.60;;;;;;4990290;28;19964;-68
2022/01/26 04:34:38;;;;;;;51.72;23.13;;;-0.50;80.30;;;;;;4990392;28;20041;-68
2022/01/26 04:39:39;;;;;;;54.10;23.80;;;-0.50;80.00;;;;;;4987448;28;20067;-68
2022/01/26 04:42:18;;;;;;;53.72;24.50;;;-0.60;80.80;;;;;;4989828;28;20022;-68
2022/01/26 04:45:01;;;;;;;49.88;22.40;;;-0.60;79.90;;;;;;4989394;28;20070;-68
2022/01/26 04:47:26;;;;;;;55.45;25.40;;;-0.60;79.90;;;;;;4992073;28;20034;-67
2022/01/26 04:49:52;;;;;;;56.08;25.40;;;-0.50;79.90;;;;;;4998351;28;20084;-69
2022/01/26 04:52:18;;;;;;;49.63;23.42;;;-0.60;79.70;;;;;;4994667;28;20034;-68
2022/01/26 04:54:43;;;;;;;54.03;24.58;;;-0.60;79.80;;;;;;4997906;28;20516;-69
2022/01/26 04:57:09;;;;;;;58.63;25.98;;;-0.60;80.00;;;;;;4995948;28;20041;-68
2022/01/26 04:59:34;;;;;;;52.38;24.67;;;-0.60;80.00;;;;;;4992808;28;20038;-68
2022/01/26 05:02:00;;;;;;;51.88;24.20;;;-0.50;80.00;;;;;;4997466;28;20046;-69
2022/01/26 05:04:26;;;;;;;105.65;41.85;;;-0.60;80.00;;;;;;4991925;28;20562;-69
2022/01/26 05:06:51;;;;;;;59.22;26.13;;;-0.60;80.00;;;;;;5001085;28;20030;-67
2022/01/26 05:09:19;;;;;;;54.95;26.00;;;-0.60;80.10;;;;;;4995435;28;21256;-69
2022/01/26 05:11:47;;;;;;;49.83;23.95;;;-0.60;80.20;;;;;;4991496;28;20119;-69
2022/01/26 05:14:13;;;;;;;47.00;23.15;;;-0.60;80.30;;;;;;4992803;28;20041;-68
2022/01/26 05:16:39;;;;;;;47.28;23.17;;;-0.50;80.40;;;;;;4993597;28;20429;-67
2022/01/26 05:19:05;;;;;;;44.95;22.42;;;-0.50;80.40;;;;;;4990794;28;20066;-68
2022/01/26 05:21:31;;;;;;;42.58;22.38;;;-0.50;80.20;;;;;;4993199;28;20034;-68
2022/01/26 05:23:57;;;;;;;44.90;22.33;;;-0.50;79.90;;;;;;4988838;28;20081;-68
2022/01/26 05:26:23;;;;;;;43.42;22.48;;;-0.50;79.70;;;;;;5009781;28;20068;-68
2022/01/26 05:28:48;;;;;;;42.90;21.77;;;-0.60;79.70;;;;;;4992715;28;20030;-68
2022/01/26 05:31:14;;;;;;;40.20;20.63;;;-0.60;79.70;;;;;;4997402;28;20049;-68
2022/01/26 05:33:40;;;;;;;43.63;20.90;;;-0.60;79.70;;;;;;4995561;28;20029;-67
2022/01/26 05:36:07;;;;;;;40.13;20.35;;;-0.60;79.70;;;;;;4994877;28;20034;-68
2022/01/26 05:38:32;;;;;;;41.92;21.73;;;-0.60;79.70;;;;;;4992755;28;20508;-66
2022/01/26 05:41:01;;;;;;;40.83;21.27;;;-0.60;79.70;;;;;;4990065;28;20038;-69
2022/01/26 05:43:29;;;;;;;39.00;19.40;;;-0.60;79.70;;;;;;4991928;28;20065;-68
2022/01/26 05:45:59;;;;;;;41.78;21.27;;;-0.60;79.70;;;;;;4998358;28;20038;-68
2022/01/26 05:48:24;;;;;;;41.38;20.40;;;-0.60;79.70;;;;;;4994883;28;20093;-68
2022/01/26 05:50:52;;;;;;;40.58;22.25;;;-0.60;79.30;;;;;;4992765;28;20030;-68
2022/01/26 05:53:21;;;;;;;42.00;20.95;;;-0.60;79.20;;;;;;4994416;28;20038;-68
2022/01/26 05:55:56;;;;;;;40.35;20.85;;;-0.60;79.10;;;;;;4997921;28;20030;-68
2022/01/26 05:58:22;;;;;;;43.97;20.90;;;-0.70;79.10;;;;;;4997163;28;20058;-68
2022/01/26 06:00:47;;;;;;;40.00;20.25;;;-0.70;79.20;;;;;;4994940;28;20116;-68
2022/01/26 06:03:13;;;;;;;44.47;21.38;;;-0.70;79.10;;;;;;5005493;28;20528;-68
2022/01/26 06:05:39;;;;;;;43.33;21.48;;;-0.80;79.00;;;;;;4996877;28;20038;-68
2022/01/26 06:08:05;;;;;;;44.40;21.80;;;-0.80;79.00;;;;;;4994071;28;20476;-68
2022/01/26 06:10:31;;;;;;;40.58;20.13;;;-0.80;79.10;;;;;;4989489;28;20026;-68
2022/01/26 06:12:57;;;;;;;42.42;21.70;;;-0.90;79.30;;;;;;4991193;28;20409;-68
2022/01/26 06:15:23;;;;;;;40.53;21.23;;;-0.90;79.30;;;;;;4994499;28;20638;-68
2022/01/26 06:17:48;;;;;;;43.67;20.70;;;-0.90;79.20;;;;;;4992954;28;20034;-68
2022/01/26 06:20:14;;;;;;;38.88;20.15;;;-0.90;79.00;;;;;;4997041;28;20045;-69
2022/01/26 06:22:40;;;;;;;42.00;20.98;;;-0.90;79.00;;;;;;5009243;28;20039;-68
2022/01/26 06:25:07;;;;;;;45.90;22.23;;;-0.90;79.00;;;;;;4996080;28;20046;-68
2022/01/26 06:27:35;;;;;;;50.78;23.75;;;-1.00;78.80;;;;;;5000983;28;20572;-68
2022/01/26 06:30:02;;;;;;;49.47;21.88;;;-1.00;79.00;;;;;;4992303;28;20315;-68
2022/01/26 06:32:28;;;;;;;53.63;24.23;;;-1.00;79.00;;;;;;4994041;28;20037;-67
2022/01/26 06:34:54;;;;;;;49.10;23.60;;;-1.10;78.90;;;;;;4994488;28;20034;-67
2022/01/26 06:37:20;;;;;;;49.15;23.00;;;-1.10;78.80;;;;;;4995752;28;20042;-68
2022/01/26 06:39:46;;;;;;;48.08;23.48;;;-1.10;78.80;;;;;;4991628;28;20042;-68
2022/01/26 06:42:15;;;;;;;47.00;23.48;;;-1.10;78.80;;;;;;4995603;28;20072;-68
2022/01/26 06:47:59;;;;;;;46.08;21.92;;;-1.20;78.50;;;;;;4989728;28;20452;-67
2022/01/26 06:50:21;;;;;;;47.58;23.45;;;-1.20;78.50;;;;;;4996519;28;20046;-68
2022/01/26 06:52:47;;;;;;;51.45;24.15;;;-1.20;78.50;;;;;;4994622;28;20030;-66
2022/01/26 06:55:14;;;;;;;51.00;23.13;;;-1.30;78.40;;;;;;4994860;28;20413;-68
2022/01/26 06:57:41;;;;;;;52.08;23.73;;;-1.30;78.40;;;;;;4998416;28;20029;-69
2022/01/26 07:00:09;;;;;;;51.90;25.50;;;-1.30;78.40;;;;;;4994546;28;20099;-68
2022/01/26 07:02:36;;;;;;;56.35;25.27;;;-1.30;78.40;;;;;;4995684;28;20121;-67
2022/01/26 07:05:03;;;;;;;55.35;26.27;;;-1.40;78.40;;;;;;4996903;28;20346;-68
2022/01/26 07:07:29;;;;;;;58.95;27.23;;;-1.40;78.50;;;;;;4995369;28;20399;-68
2022/01/26 07:09:55;;;;;;;57.03;25.83;;;-1.50;78.50;;;;;;4991646;28;20045;-68
2022/01/26 07:12:20;;;;;;;53.25;25.38;;;-1.50;78.60;;;;;;4991990;28;20042;-68
2022/01/26 07:22:40;;;;;;;56.83;27.50;;;-1.50;79.70;;;;;;4996020;28;20057;-68
2022/01/26 07:25:06;;;;;;;58.42;27.40;;;-1.50;79.70;;;;;;4992928;28;20081;-68
2022/01/26 07:27:32;;;;;;;58.53;28.60;;;-1.50;79.50;;;;;;4995318;28;20068;-68
2022/01/26 07:29:59;;;;;;;59.00;27.90;;;-1.50;79.50;;;;;;4994447;28;20038;-69
2022/01/26 07:32:27;;;;;;;59.80;29.48;;;-1.50;79.50;;;;;;4989493;28;20026;-68
2022/01/26 07:34:52;;;;;;;56.08;27.05;;;-1.50;79.40;;;;;;4990602;28;20046;-68
2022/01/26 07:37:20;;;;;;;56.05;28.58;;;-1.50;79.30;;;;;;4995334;28;20034;-68
2022/01/26 07:40:01;;;;;;;60.72;30.55;;;-1.50;79.30;;;;;;4994106;28;20041;-68
2022/01/26 07:42:27;;;;;;;58.30;28.63;;;-1.40;79.30;;;;;;4994727;28;20038;-68
2022/01/26 07:44:52;;;;;;;64.63;31.98;;;-1.50;79.30;;;;;;4991756;28;20049;-68
2022/01/26 07:47:18;;;;;;;60.50;31.60;;;-1.50;79.50;;;;;;4992951;28;20493;-68
2022/01/26 07:49:44;;;;;;;57.13;30.20;;;-1.40;79.70;;;;;;4991194;28;20038;-68
2022/01/26 07:52:09;;;;;;;50.20;25.42;;;-1.40;80.00;;;;;;4995373;28;20050;-68
2022/01/26 07:54:35;;;;;;;44.45;24.20;;;-1.40;80.10;;;;;;4993758;28;20038;-68
2022/01/26 07:57:01;;;;;;;42.70;21.92;;;-1.40;80.30;;;;;;4996974;28;20117;-68
2022/01/26 07:59:27;;;;;;;39.58;20.27;;;-1.30;80.50;;;;;;4996642;28;20118;-68
2022/01/26 08:01:53;;;;;;;44.78;22.40;;;-1.30;80.60;;;;;;4994711;28;20034;-68
2022/01/26 08:04:19;;;;;;;37.83;21.65;;;-1.30;80.60;;;;;;4995786;28;20033;-68
2022/01/26 08:06:44;;;;;;;41.53;22.90;;;-1.20;80.80;;;;;;4994011;28;20112;-68
2022/01/26 08:09:11;;;;;;;43.22;22.00;;;-1.20;80.90;;;;;;4993156;28;20409;-68
2022/01/26 08:11:37;;;;;;;42.95;23.55;;;-1.10;80.90;;;;;;4988292;28;20048;-68
2022/01/26 08:14:02;;;;;;;48.58;24.98;;;-1.00;81.00;;;;;;4991417;28;20026;-67
2022/01/26 08:16:28;;;;;;;43.40;21.40;;;-1.00;81.10;;;;;;4998781;28;20026;-69
2022/01/26 08:18:54;;;;;;;41.28;20.88;;;-1.00;81.10;;;;;;4992811;28;20022;-69
2022/01/26 08:21:20;;;;;;;43.75;21.02;;;-0.90;81.30;;;;;;4993847;28;20401;-68
2022/01/26 08:23:47;;;;;;;41.13;21.77;;;-0.90;81.30;;;;;;4992808;28;20076;-69
2022/01/26 08:26:14;;;;;;;41.58;21.13;;;-0.80;81.40;;;;;;4995289;28;20065;-69
2022/01/26 08:28:44;;;;;;;38.72;20.92;;;-0.80;81.40;;;;;;4999167;28;20117;-67
2022/01/26 08:31:12;;;;;;;45.63;22.50;;;-0.70;81.60;;;;;;4998373;28;20065;-67
2022/01/26 08:33:38;;;;;;;37.53;19.98;;;-0.70;81.80;;;;;;4993209;28;20146;-68
2022/01/26 08:36:04;;;;;;;36.35;19.77;;;-0.60;82.00;;;;;;4998020;28;20038;-69
2022/01/26 08:38:29;;;;;;;39.88;20.80;;;-0.50;82.00;;;;;;4998783;28;20129;-68
2022/01/26 08:40:55;;;;;;;40.95;20.98;;;-0.50;82.10;;;;;;4996832;28;20041;-68
2022/01/26 08:43:21;;;;;;;42.03;21.33;;;-0.40;82.30;;;;;;4997327;28;20038;-68
2022/01/26 08:45:47;;;;;;;36.13;19.90;;;-0.40;82.30;;;;;;4996097;28;20421;-67
2022/01/26 08:48:12;;;;;;;37.47;20.02;;;-0.30;82.50;;;;;;4994979;28;21296;-68
2022/01/26 08:50:38;;;;;;;37.10;20.10;;;-0.30;82.60;;;;;;4992603;28;20080;-67
2022/01/26 08:53:04;;;;;;;40.40;19.77;;;-0.20;82.60;;;;;;4999140;28;20048;-68
2022/01/26 08:55:30;;;;;;;37.95;20.30;;;-0.10;83.50;;;;;;4999171;28;20072;-68
2022/01/26 08:57:55;;;;;;;38.95;20.85;;;-0.10;82.70;;;;;;4999346;28;20038;-68
2022/01/26 09:00:21;;;;;;;41.83;21.90;;;0.00;82.80;;;;;;4994540;28;20050;-68
2022/01/26 09:02:47;;;;;;;41.63;22.58;;;0.00;82.70;;;;;;4991999;28;20034;-68
2022/01/26 09:05:13;;;;;;;47.35;23.05;;;0.10;82.80;;;;;;4995113;28;20042;-68
2022/01/26 09:07:43;;;;;;;47.08;24.00;;;0.10;83.00;;;;;;4996887;28;20057;-68
2022/01/26 09:10:09;;;;;;;43.63;23.27;;;0.20;83.00;;;;;;4994892;28;20034;-68
2022/01/26 09:12:38;;;;;;;44.60;22.80;;;0.20;83.00;;;;;;4993199;28;20035;-67
2022/01/26 09:15:06;;;;;;;42.20;23.17;;;0.20;83.00;;;;;;4999784;28;20038;-68
2022/01/26 09:17:34;;;;;;;44.00;22.95;;;0.20;83.00;;;;;;4995851;28;20042;-67
2022/01/26 09:20:00;;;;;;;42.50;21.65;;;0.30;83.00;;;;;;4997970;28;20453;-68
2022/01/26 09:22:26;;;;;;;44.38;23.45;;;0.30;83.00;;;;;;4998408;28;20050;-68
2022/01/26 09:24:52;;;;;;;42.75;22.58;;;0.30;83.10;;;;;;4999316;28;20100;-68
2022/01/26 09:30:00;;;;;;;42.97;22.88;;;0.40;83.30;;;;;;5878931;23;20758;-65
2022/01/26 09:32:25;;;;;;;43.33;22.27;;;0.50;83.30;;;;;;4979504;28;20057;-68
2022/01/26 09:34:51;;;;;;;43.08;22.95;;;0.60;83.30;;;;;;4978601;28;20034;-67
2022/01/26 09:37:17;;;;;;;46.10;23.63;;;0.70;83.20;;;;;;4977516;28;20106;-68
2022/01/26 09:39:45;;;;;;;44.15;22.65;;;0.70;83.20;;;;;;4991315;28;20039;-67
2022/01/26 09:42:11;;;;;;;44.67;21.70;;;0.70;83.10;;;;;;4978681;28;20068;-68
2022/01/26 09:44:37;;;;;;;40.55;21.40;;;0.80;83.20;;;;;;4975691;28;20408;-67
2022/01/26 09:47:04;;;;;;;39.75;21.08;;;0.90;83.20;;;;;;4977639;28;20086;-68
2022/01/26 09:49:34;;;;;;;39.72;21.58;;;1.00;83.20;;;;;;4979866;28;20569;-68
2022/01/26 09:52:13;;;;;;;39.55;21.50;;;1.00;83.20;;;;;;4976616;28;20043;-68
2022/01/26 09:54:40;;;;;;;39.40;21.33;;;1.10;83.20;;;;;;4975979;28;20665;-68
2022/01/26 09:57:05;;;;;;;44.53;22.38;;;1.20;83.10;;;;;;4977091;28;20050;-68
2022/01/26 09:59:32;;;;;;;39.17;21.02;;;1.30;83.20;;;;;;4978157;28;20042;-67
2022/01/26 10:01:58;;;;;;;39.35;21.75;;;1.30;83.10;;;;;;4978996;28;20031;-68
2022/01/26 10:04:28;;;;;;;38.45;20.10;;;1.40;83.20;;;;;;4980331;28;20023;-68
2022/01/26 10:07:17;;;;;;;39.83;21.13;;;1.50;83.30;;;;;;4975735;28;20042;-68
2022/01/26 10:09:52;;;;;;;37.95;21.13;;;1.60;83.30;;;;;;4979801;28;20357;-67
2022/01/26 10:18:00;;;;;;;38.50;19.52;;;1.80;83.20;;;;;;4974896;28;20041;-68
2022/01/26 10:20:25;;;;;;;39.03;20.30;;;1.90;83.30;;;;;;4976735;28;20026;-68
2022/01/26 10:22:51;;;;;;;34.42;18.85;;;2.00;83.20;;;;;;4978063;28;20037;-67
2022/01/26 10:25:19;;;;;;;40.42;19.90;;;2.10;83.20;;;;;;4978642;28;20101;-68
2022/01/26 10:27:49;;;;;;;33.75;19.65;;;2.20;83.20;;;;;;4978681;28;20046;-67
2022/01/26 10:30:17;;;;;;;37.33;20.42;;;2.30;83.10;;;;;;4978246;28;20403;-68
2022/01/26 10:32:47;;;;;;;37.80;20.30;;;2.30;83.00;;;;;;4979063;28;20118;-68
2022/01/26 10:35:15;;;;;;;35.20;20.15;;;2.40;83.00;;;;;;4975749;28;20034;-67
2022/01/26 10:37:53;;;;;;;33.92;18.50;;;2.50;82.90;;;;;;4976881;28;20616;-67
2022/01/26 10:40:22;;;;;;;36.00;18.75;;;2.50;82.60;;;;;;4972339;28;20121;-68
2022/01/26 10:42:58;;;;;;;33.47;18.55;;;2.60;82.30;;;;;;4977240;28;20049;-68
2022/01/26 10:46:04;;;;;;;36.92;19.30;;;2.60;82.00;;;;;;4979321;28;20037;-67
2022/01/26 10:48:43;;;;;;;34.55;17.55;;;2.70;81.80;;;;;;4976746;28;20476;-68
2022/01/26 10:51:34;;;;;;;34.03;17.85;;;2.70;81.50;;;;;;4975400;28;20034;-68
2022/01/26 10:54:11;;;;;;;34.65;18.30;;;2.70;81.40;;;;;;4975973;28;20445;-67
2022/01/26 10:56:37;;;;;;;34.72;18.40;;;2.70;81.40;;;;;;4979008;28;20042;-68
2022/01/26 10:59:03;;;;;;;33.33;17.48;;;2.60;81.50;;;;;;4977354;28;20592;-67
2022/01/26 11:01:29;;;;;;;35.25;17.95;;;2.70;81.50;;;;;;4976047;28;20034;-68
2022/01/26 11:03:55;;;;;;;34.40;18.33;;;2.70;81.40;;;;;;4976021;28;20038;-67
2022/01/26 11:06:21;;;;;;;36.67;19.38;;;2.60;81.50;;;;;;4978347;28;20535;-68
2022/01/26 11:08:48;;;;;;;35.50;18.35;;;2.70;81.60;;;;;;4977343;28;20038;-68
2022/01/26 11:11:23;;;;;;;36.97;18.33;;;2.80;81.70;;;;;;4976774;28;22878;-67
2022/01/26 11:13:49;;;;;;;36.83;19.10;;;2.80;81.80;;;;;;4977076;28;20118;-67
2022/01/26 11:16:18;;;;;;;35.67;17.95;;;2.80;81.80;;;;;;4988069;28;20129;-67
2022/01/26 11:18:52;;;;;;;39.17;18.60;;;2.90;81.80;;;;;;4977681;28;20035;-67
2022/01/26 11:21:37;;;;;;;37.20;18.52;;;3.00;81.80;;;;;;4975560;28;20034;-67
2022/01/26 11:24:21;;;;;;;39.30;18.40;;;3.00;81.60;;;;;;4977119;28;20030;-68
2022/01/26 11:26:49;;;;;;;35.90;17.73;;;3.10;81.60;;;;;;4978580;28;20054;-68
2022/01/26 11:29:14;;;;;;;32.33;16.73;;;3.10;81.40;;;;;;4979021;28;20456;-67
2022/01/26 11:31:41;;;;;;;39.20;19.35;;;3.10;81.10;;;;;;4978478;28;20038;-68
2022/01/26 11:34:07;;;;;;;37.05;19.05;;;3.20;81.10;;;;;;4979380;28;20038;-68
2022/01/26 11:36:33;;;;;;;38.70;19.20;;;3.20;81.00;;;;;;4978734;28;20460;-68
2022/01/26 11:46:58;;;;;;;36.08;18.08;;;3.30;80.90;;;;;;4979250;28;20519;-67
2022/01/26 11:49:35;;;;;;;38.72;19.05;;;3.40;81.00;;;;;;4977614;28;20031;-67
2022/01/26 11:52:01;;;;;;;37.03;18.88;;;3.40;80.90;;;;;;4981432;28;20042;-67
2022/01/26 11:54:53;;;;;;;37.72;18.58;;;3.40;81.90;;;;;;4978621;28;20260;-68
2022/01/26 11:57:21;;;;;;;36.17;18.52;;;3.50;81.10;;;;;;4979560;28;20058;-68
2022/01/26 11:59:59;;;;;;;39.80;19.58;;;3.60;81.20;;;;;;4982343;28;20401;-67
2022/01/26 12:02:42;;;;;;;42.45;20.15;;;3.70;82.00;;;;;;4982140;28;20030;-68
2022/01/26 12:05:12;;;;;;;35.13;18.75;;;3.70;81.00;;;;;;4987336;28;20651;-67
2022/01/26 12:07:49;;;;;;;35.80;18.48;;;3.80;80.90;;;;;;4981501;28;20037;-67
2022/01/26 12:10:26;;;;;;;38.58;19.65;;;3.80;80.70;;;;;;4981241;28;20105;-68
2022/01/26 12:13:04;;;;;;;40.80;20.25;;;3.90;80.70;;;;;;4981080;28;20057;-67
2022/01/26 12:15:40;;;;;;;38.58;19.52;;;3.90;80.60;;;;;;4980168;28;20031;-68
2022/01/26 12:34:39;;;;;;;38.42;20.20;;;4.20;80.40;;;;;;4982129;28;20042;-68
2022/01/26 12:37:23;;;;;;;40.70;19.83;;;4.20;80.20;;;;;;4981807;28;20026;-68
2022/01/26 12:45:22;;;;;;;42.10;21.38;;;4.30;80.20;;;;;;4979714;28;20034;-68
2022/01/26 12:47:53;;;;;;;43.92;21.30;;;4.30;80.40;;;;;;4979289;28;20039;-68
2022/01/26 12:50:19;;;;;;;42.10;21.48;;;4.30;80.40;;;;;;4978381;28;20094;-68
2022/01/26 12:52:51;;;;;;;43.70;20.75;;;4.30;80.40;;;;;;4979613;28;20038;-67
2022/01/26 12:55:26;;;;;;;42.28;20.85;;;4.30;80.20;;;;;;4976183;28;20042;-68
2022/01/26 12:57:52;;;;;;;45.83;21.08;;;4.30;80.30;;;;;;4979211;28;20038;-68
2022/01/26 13:00:18;;;;;;;41.88;20.77;;;4.30;80.40;;;;;;4974466;28;20647;-68
2022/01/26 13:02:44;;;;;;;43.55;20.60;;;4.40;80.50;;;;;;4980682;28;21049;-67
2022/01/26 13:05:11;;;;;;;41.63;20.52;;;4.40;80.40;;;;;;4979308;28;20034;-68
2022/01/26 13:07:37;;;;;;;39.78;20.23;;;4.40;80.40;;;;;;4980012;28;20072;-68
2022/01/26 13:10:14;;;;;;;43.47;21.85;;;4.40;80.40;;;;;;4979961;28;20386;-67
2022/01/26 13:12:40;;;;;;;39.42;19.23;;;4.40;80.40;;;;;;4977878;28;20030;-68
2022/01/26 13:15:28;;;;;;;39.80;20.48;;;4.40;80.20;;;;;;4979397;28;20038;-68
2022/01/26 13:18:11;;;;;;;38.97;20.80;;;4.40;80.00;;;;;;4980603;28;20389;-67
2022/01/26 13:20:56;;;;;;;42.20;21.85;;;4.40;80.00;;;;;;4980206;28;20077;-68
2022/01/26 13:23:38;;;;;;;42.55;21.73;;;4.40;80.00;;;;;;4977048;28;20031;-68
2022/01/26 13:28:54;;;;;;;39.72;20.27;;;4.40;80.00;;;;;;4978053;28;20404;-68
2022/01/26 13:39:27;;;;;;;40.92;20.77;;;4.40;80.50;;;;;;4981522;28;20034;-67
2022/01/26 13:42:26;;;;;;;41.17;20.48;;;4.40;80.40;;;;;;4980081;28;20517;-68
2022/01/26 13:59:58;;;;;;;42.40;20.65;;;4.60;80.10;;;;;;4958068;28;20034;-68
2022/01/26 14:02:26;;;;;;;42.55;20.60;;;4.70;80.00;;;;;;4980280;28;20177;-68
2022/01/26 14:04:52;;;;;;;41.38;20.25;;;4.60;79.90;;;;;;4978345;28;20027;-68
2022/01/26 14:07:18;;;;;;;40.95;20.67;;;4.70;80.00;;;;;;4976289;28;20057;-68
2022/01/26 14:09:45;;;;;;;38.67;19.77;;;4.70;80.10;;;;;;4977625;28;20074;-67
2022/01/26 14:12:14;;;;;;;41.80;21.35;;;4.70;80.10;;;;;;4973324;28;20125;-67
2022/01/26 14:14:45;;;;;;;38.47;20.30;;;4.70;80.40;;;;;;4974734;28;20100;-68
2022/01/26 14:17:16;;;;;;;42.20;21.05;;;4.70;80.10;;;;;;4976615;28;20373;-68
2022/01/26 14:23:03;;;;;;;41.08;20.38;;;4.80;80.90;;;;;;4938791;28;20490;-68
2022/01/26 14:25:30;;;;;;;;;;;4.80;80.00;;;;;;4976672;28;20039;-67
2022/01/26 14:28:04;;;;;;;36.45;19.13;;;4.90;80.20;;;;;;4978519;28;21003;-67
2022/01/26 14:30:58;;;;;;;40.25;20.40;;;4.90;79.90;;;;;;4975591;28;20069;-68
2022/01/26 14:55:29;;;;;;;40.17;21.55;;;4.70;79.70;;;;;;4978496;28;20117;-68
2022/01/26 15:33:12;;;;;;;41.35;21.50;;;4.40;79.50;;;;;;4983503;28;20039;-67
2022/01/26 15:40:59;;;;;;;38.97;20.00;;;4.40;79.50;;;;;;4974299;28;20042;-68
2022/01/26 15:51:47;;;;;;;54.65;30.55;;;4.30;79.30;;;;;;4982454;28;20054;-68
2022/01/26 16:07:45;;;;;;;40.63;21.08;;;4.20;79.90;;;;;;4983394;28;20026;-68
2022/01/26 18:15:40;;;;;;;43.25;22.98;;;2.50;79.90;;;;;;4980400;28;20042;-68
2022/01/26 18:50:44;;;;;;;45.55;23.55;;;2.10;80.30;;;;;;4979634;28;20030;-68
2022/01/26 18:53:10;;;;;;;50.90;23.98;;;2.10;80.60;;;;;;4979613;28;20119;-68
2022/01/26 18:55:36;;;;;;;45.60;23.50;;;2.10;80.90;;;;;;4978387;28;20645;-68
2022/01/26 18:58:02;;;;;;;46.42;23.48;;;2.00;81.10;;;;;;4979343;28;20042;-68
2022/01/26 19:00:27;;;;;;;45.38;23.13;;;2.00;81.30;;;;;;4977870;28;20042;-68
2022/01/26 19:02:53;;;;;;;47.60;23.75;;;2.00;81.40;;;;;;4980438;28;20031;-68
2022/01/26 19:05:19;;;;;;;47.35;23.77;;;2.00;81.30;;;;;;4979195;28;20035;-68
2022/01/26 19:07:44;;;;;;;44.67;22.83;;;2.00;81.30;;;;;;4980091;28;20553;-68
2022/01/26 19:10:11;;;;;;;48.60;22.83;;;2.00;81.20;;;;;;4979367;28;20815;-69
2022/01/26 19:12:38;;;;;;;51.70;25.33;;;2.00;81.10;;;;;;4976405;28;20061;-68
2022/01/26 19:15:10;;;;;;;53.45;25.38;;;2.00;81.80;;;;;;4980389;28;20130;-67
2022/01/26 19:25:18;;;;;;;51.38;26.80;;;2.00;80.40;;;;;;4976111;28;20058;-67
2022/01/26 19:33:09;;;;;;;57.10;28.98;;;2.00;80.00;;;;;;4977847;28;20039;-65
2022/01/26 19:42:10;;;;;;;53.45;26.20;;;1.80;80.20;;;;;;4967810;28;20097;-67
2022/01/26 19:54:18;;;;;;;47.80;24.77;;;1.70;80.20;;;;;;4975125;28;20411;-66
2022/01/26 19:56:44;;;;;;;54.47;26.35;;;1.70;80.40;;;;;;4975643;28;20045;-66
2022/01/26 19:59:10;;;;;;;58.10;26.55;;;1.70;80.60;;;;;;4974010;28;20038;-67
2022/01/26 20:01:35;;;;;;;56.67;28.15;;;1.60;80.60;;;;;;4975342;28;20053;-66
2022/01/26 20:04:01;;;;;;;64.78;31.30;;;1.70;80.70;;;;;;4977881;28;20501;-66
2022/01/26 20:06:27;;;;;;;64.85;31.80;;;1.70;80.60;;;;;;4974911;28;20746;-66